sensor_id;sensor_type;location;lat;lon;timestamp;temperature;humidity
292;DHT22;23311;48.776;9.162;2023-06-14T00:00:02;15.80;75.80
292;DHT22;23311;48.776;9.162;2023-06-14T00:02:32;15.80;76.20
292;DHT22;23311;48.776;9.162;2023-06-14T00:05:01;16.00;74.90
292;DHT22;23311;48.776;9.162;2023-06-14T00:07:37;16.00;74.50
292;DHT22;23311;48.776;9.162;2023-06-14T00:10:10;15.80;75.00
292;DHT22;23311;48.776;9.162;2023-06-14T00:12:39;15.80;75.40
292;DHT22;23311;48.776;9.162;2023-06-14T00:15:08;15.80;75.20
292;DHT22;23311;48.776;9.162;2023-06-14T00:17:37;15.80;75.00
292;DHT22;23311;48.776;9.162;2023-06-14T00:20:08;15.70;75.10
292;DHT22;23311;48.776;9.162;2023-06-14T00:22:36;15.70;76.10
292;DHT22;23311;48.776;9.162;2023-06-14T00:25:06;15.60;75.10
292;DHT22;23311;48.776;9.162;2023-06-14T00:27:56;15.50;75.60
292;DHT22;23311;48.776;9.162;2023-06-14T00:30:24;15.30;75.70
292;DHT22;23311;48.776;9.162;2023-06-14T00:32:57;15.30;75.90
292;DHT22;23311;48.776;9.162;2023-06-14T00:35:27;15.20;76.00
292;DHT22;23311;48.776;9.162;2023-06-14T00:37:55;15.10;76.60
292;DHT22;23311;48.776;9.162;2023-06-14T00:40:23;15.00;76.90
292;DHT22;23311;48.776;9.162;2023-06-14T00:42:51;15.10;77.20
292;DHT22;23311;48.776;9.162;2023-06-14T00:45:19;15.10;77.20
292;DHT22;23311;48.776;9.162;2023-06-14T00:47:48;15.00;77.70
292;DHT22;23311;48.776;9.162;2023-06-14T00:50:17;15.00;77.70
292;DHT22;23311;48.776;9.162;2023-06-14T00:52:49;15.00;77.90
292;DHT22;23311;48.776;9.162;2023-06-14T00:55:17;14.90;78.50
292;DHT22;23311;48.776;9.162;2023-06-14T00:57:45;15.40;77.90
292;DHT22;23311;48.776;9.162;2023-06-14T01:00:14;15.40;77.40
292;DHT22;23311;48.776;9.162;2023-06-14T01:03:01;15.30;77.70
292;DHT22;23311;48.776;9.162;2023-06-14T01:05:49;15.60;76.80
292;DHT22;23311;48.776;9.162;2023-06-14T01:08:27;15.60;76.70
292;DHT22;23311;48.776;9.162;2023-06-14T01:11:02;15.80;76.20
292;DHT22;23311;48.776;9.162;2023-06-14T01:13:35;15.60;76.40
292;DHT22;23311;48.776;9.162;2023-06-14T01:16:05;15.30;76.90
292;DHT22;23311;48.776;9.162;2023-06-14T01:18:34;15.00;77.70
292;DHT22;23311;48.776;9.162;2023-06-14T01:21:03;14.80;78.30
292;DHT22;23311;48.776;9.162;2023-06-14T01:23:33;14.70;78.90
292;DHT22;23311;48.776;9.162;2023-06-14T01:26:01;14.60;79.70
292;DHT22;23311;48.776;9.162;2023-06-14T01:28:31;14.50;80.10
292;DHT22;23311;48.776;9.162;2023-06-14T01:31:02;14.50;80.10
292;DHT22;23311;48.776;9.162;2023-06-14T01:33:32;14.40;80.00
292;DHT22;23311;48.776;9.162;2023-06-14T01:36:02;14.50;79.90
292;DHT22;23311;48.776;9.162;2023-06-14T01:38:31;14.40;80.40
292;DHT22;23311;48.776;9.162;2023-06-14T01:41:01;14.30;80.80
292;DHT22;23311;48.776;9.162;2023-06-14T01:43:31;14.30;81.50
292;DHT22;23311;48.776;9.162;2023-06-14T01:46:01;14.20;81.70
292;DHT22;23311;48.776;9.162;2023-06-14T01:48:30;14.10;81.90
292;DHT22;23311;48.776;9.162;2023-06-14T01:50:58;14.30;81.80
292;DHT22;23311;48.776;9.162;2023-06-14T01:53:26;14.30;81.50
292;DHT22;23311;48.776;9.162;2023-06-14T01:55:54;14.50;81.10
292;DHT22;23311;48.776;9.162;2023-06-14T01:58:24;14.40;81.10
292;DHT22;23311;48.776;9.162;2023-06-14T02:00:53;14.20;81.40
292;DHT22;23311;48.776;9.162;2023-06-14T02:03:23;14.20;81.80
292;DHT22;23311;48.776;9.162;2023-06-14T02:05:52;14.20;82.10
292;DHT22;23311;48.776;9.162;2023-06-14T02:08:21;14.10;82.60
292;DHT22;23311;48.776;9.162;2023-06-14T02:10:49;14.00;82.90
292;DHT22;23311;48.776;9.162;2023-06-14T02:13:17;14.00;83.30
292;DHT22;23311;48.776;9.162;2023-06-14T02:15:46;14.00;83.10
292;DHT22;23311;48.776;9.162;2023-06-14T02:18:18;14.10;82.80
292;DHT22;23311;48.776;9.162;2023-06-14T02:20:46;14.20;82.00
292;DHT22;23311;48.776;9.162;2023-06-14T02:23:14;14.30;81.70
292;DHT22;23311;48.776;9.162;2023-06-14T02:25:42;14.30;81.20
292;DHT22;23311;48.776;9.162;2023-06-14T02:28:12;14.10;81.90
292;DHT22;23311;48.776;9.162;2023-06-14T02:30:40;14.00;83.30
292;DHT22;23311;48.776;9.162;2023-06-14T02:33:09;14.00;83.70
292;DHT22;23311;48.776;9.162;2023-06-14T02:35:39;13.90;83.80
292;DHT22;23311;48.776;9.162;2023-06-14T02:38:08;13.90;83.90
292;DHT22;23311;48.776;9.162;2023-06-14T02:40:36;13.90;83.90
292;DHT22;23311;48.776;9.162;2023-06-14T02:43:04;13.90;84.00
292;DHT22;23311;48.776;9.162;2023-06-14T02:45:32;13.90;83.60
292;DHT22;23311;48.776;9.162;2023-06-14T02:48:00;13.80;84.20
292;DHT22;23311;48.776;9.162;2023-06-14T02:50:30;13.70;84.30
292;DHT22;23311;48.776;9.162;2023-06-14T02:52:59;13.70;84.60
292;DHT22;23311;48.776;9.162;2023-06-14T02:55:27;13.80;84.70
292;DHT22;23311;48.776;9.162;2023-06-14T02:57:55;13.80;84.50
292;DHT22;23311;48.776;9.162;2023-06-14T03:00:23;13.80;84.40
292;DHT22;23311;48.776;9.162;2023-06-14T03:02:51;13.70;84.50
292;DHT22;23311;48.776;9.162;2023-06-14T03:05:21;13.70;84.50
292;DHT22;23311;48.776;9.162;2023-06-14T03:07:52;13.90;83.30
292;DHT22;23311;48.776;9.162;2023-06-14T03:10:20;13.80;83.20
292;DHT22;23311;48.776;9.162;2023-06-14T03:12:49;13.60;83.80
292;DHT22;23311;48.776;9.162;2023-06-14T03:15:18;13.50;84.20
292;DHT22;23311;48.776;9.162;2023-06-14T03:17:46;13.50;84.40
292;DHT22;23311;48.776;9.162;2023-06-14T03:20:16;13.40;85.10
292;DHT22;23311;48.776;9.162;2023-06-14T03:22:44;13.30;86.10
292;DHT22;23311;48.776;9.162;2023-06-14T03:25:16;13.30;86.30
292;DHT22;23311;48.776;9.162;2023-06-14T03:27:45;13.30;86.20
292;DHT22;23311;48.776;9.162;2023-06-14T03:30:14;13.20;86.40
292;DHT22;23311;48.776;9.162;2023-06-14T03:32:42;13.20;86.70
292;DHT22;23311;48.776;9.162;2023-06-14T03:35:10;13.20;86.60
292;DHT22;23311;48.776;9.162;2023-06-14T03:37:44;13.30;86.60
292;DHT22;23311;48.776;9.162;2023-06-14T03:40:13;13.30;86.40
292;DHT22;23311;48.776;9.162;2023-06-14T03:42:43;13.30;86.60
292;DHT22;23311;48.776;9.162;2023-06-14T03:45:11;13.30;86.40
292;DHT22;23311;48.776;9.162;2023-06-14T03:47:39;13.40;86.40
292;DHT22;23311;48.776;9.162;2023-06-14T03:50:07;13.30;86.50
292;DHT22;23311;48.776;9.162;2023-06-14T03:52:35;13.40;86.60
292;DHT22;23311;48.776;9.162;2023-06-14T03:55:04;13.40;86.50
292;DHT22;23311;48.776;9.162;2023-06-14T03:57:35;13.60;86.20
292;DHT22;23311;48.776;9.162;2023-06-14T04:00:06;13.70;85.90
292;DHT22;23311;48.776;9.162;2023-06-14T04:02:35;13.70;85.80
292;DHT22;23311;48.776;9.162;2023-06-14T04:05:04;14.00;85.10
292;DHT22;23311;48.776;9.162;2023-06-14T04:07:35;14.50;84.10
292;DHT22;23311;48.776;9.162;2023-06-14T04:10:07;15.10;83.00
292;DHT22;23311;48.776;9.162;2023-06-14T04:12:36;15.80;81.40
292;DHT22;23311;48.776;9.162;2023-06-14T04:15:06;16.50;79.30
292;DHT22;23311;48.776;9.162;2023-06-14T04:17:47;17.10;77.90
292;DHT22;23311;48.776;9.162;2023-06-14T04:20:15;17.70;76.20
292;DHT22;23311;48.776;9.162;2023-06-14T04:22:44;18.20;74.20
292;DHT22;23311;48.776;9.162;2023-06-14T04:25:12;18.50;73.60
292;DHT22;23311;48.776;9.162;2023-06-14T04:27:40;18.90;72.50
292;DHT22;23311;48.776;9.162;2023-06-14T04:30:10;19.40;71.50
292;DHT22;23311;48.776;9.162;2023-06-14T04:32:40;19.80;70.80
292;DHT22;23311;48.776;9.162;2023-06-14T04:35:09;20.00;69.80
292;DHT22;23311;48.776;9.162;2023-06-14T04:37:38;20.40;69.40
292;DHT22;23311;48.776;9.162;2023-06-14T04:40:09;20.80;68.70
292;DHT22;23311;48.776;9.162;2023-06-14T04:42:38;20.80;67.40
292;DHT22;23311;48.776;9.162;2023-06-14T04:45:09;20.40;67.90
292;DHT22;23311;48.776;9.162;2023-06-14T04:47:38;19.90;69.00
292;DHT22;23311;48.776;9.162;2023-06-14T04:50:08;19.70;69.40
292;DHT22;23311;48.776;9.162;2023-06-14T04:52:37;19.30;69.90
292;DHT22;23311;48.776;9.162;2023-06-14T04:55:05;19.40;70.40
292;DHT22;23311;48.776;9.162;2023-06-14T04:57:34;19.70;69.40
292;DHT22;23311;48.776;9.162;2023-06-14T05:00:03;19.80;69.20
292;DHT22;23311;48.776;9.162;2023-06-14T05:02:34;19.50;69.20
292;DHT22;23311;48.776;9.162;2023-06-14T05:05:02;19.60;69.70
292;DHT22;23311;48.776;9.162;2023-06-14T05:07:33;19.30;70.10
292;DHT22;23311;48.776;9.162;2023-06-14T05:10:01;19.40;70.60
292;DHT22;23311;48.776;9.162;2023-06-14T05:12:30;19.30;70.80
292;DHT22;23311;48.776;9.162;2023-06-14T05:14:58;19.20;71.30
292;DHT22;23311;48.776;9.162;2023-06-14T05:17:26;19.20;71.10
292;DHT22;23311;48.776;9.162;2023-06-14T05:19:56;19.50;71.00
292;DHT22;23311;48.776;9.162;2023-06-14T05:22:24;19.70;70.10
292;DHT22;23311;48.776;9.162;2023-06-14T05:24:53;20.10;69.60
292;DHT22;23311;48.776;9.162;2023-06-14T05:27:21;20.70;68.50
292;DHT22;23311;48.776;9.162;2023-06-14T05:29:49;21.40;67.10
292;DHT22;23311;48.776;9.162;2023-06-14T05:32:17;21.60;66.00
292;DHT22;23311;48.776;9.162;2023-06-14T05:34:45;22.10;65.30
292;DHT22;23311;48.776;9.162;2023-06-14T05:37:15;22.50;64.90
292;DHT22;23311;48.776;9.162;2023-06-14T05:39:44;23.20;62.80
292;DHT22;23311;48.776;9.162;2023-06-14T05:42:12;23.40;62.20
292;DHT22;23311;48.776;9.162;2023-06-14T05:44:40;23.10;62.70
292;DHT22;23311;48.776;9.162;2023-06-14T05:47:08;24.20;61.60
292;DHT22;23311;48.776;9.162;2023-06-14T05:49:36;24.50;60.70
292;DHT22;23311;48.776;9.162;2023-06-14T05:52:05;25.30;59.40
292;DHT22;23311;48.776;9.162;2023-06-14T05:54:35;25.80;58.70
292;DHT22;23311;48.776;9.162;2023-06-14T05:57:03;26.10;57.60
292;DHT22;23311;48.776;9.162;2023-06-14T05:59:33;26.00;58.00
292;DHT22;23311;48.776;9.162;2023-06-14T06:02:01;26.20;57.20
292;DHT22;23311;48.776;9.162;2023-06-14T06:04:29;26.30;57.10
292;DHT22;23311;48.776;9.162;2023-06-14T06:06:58;26.30;57.40
292;DHT22;23311;48.776;9.162;2023-06-14T06:09:26;26.40;57.10
292;DHT22;23311;48.776;9.162;2023-06-14T06:11:55;26.00;56.80
292;DHT22;23311;48.776;9.162;2023-06-14T06:14:23;26.10;57.50
292;DHT22;23311;48.776;9.162;2023-06-14T06:16:52;26.50;57.00
292;DHT22;23311;48.776;9.162;2023-06-14T06:19:20;26.50;56.50
292;DHT22;23311;48.776;9.162;2023-06-14T06:21:48;26.70;56.90
292;DHT22;23311;48.776;9.162;2023-06-14T06:24:16;27.10;55.90
292;DHT22;23311;48.776;9.162;2023-06-14T06:26:44;28.10;54.90
292;DHT22;23311;48.776;9.162;2023-06-14T06:29:16;27.40;55.40
292;DHT22;23311;48.776;9.162;2023-06-14T06:31:44;26.70;56.50
292;DHT22;23311;48.776;9.162;2023-06-14T06:34:12;26.70;56.40
292;DHT22;23311;48.776;9.162;2023-06-14T06:36:41;26.00;56.90
292;DHT22;23311;48.776;9.162;2023-06-14T06:39:09;25.70;58.10
292;DHT22;23311;48.776;9.162;2023-06-14T06:41:38;25.90;58.20
292;DHT22;23311;48.776;9.162;2023-06-14T06:44:07;26.00;57.60
292;DHT22;23311;48.776;9.162;2023-06-14T06:46:38;26.80;56.60
292;DHT22;23311;48.776;9.162;2023-06-14T06:49:08;26.80;56.70
292;DHT22;23311;48.776;9.162;2023-06-14T06:51:36;27.20;56.20
292;DHT22;23311;48.776;9.162;2023-06-14T06:54:04;26.80;56.30
292;DHT22;23311;48.776;9.162;2023-06-14T06:56:32;26.90;55.90
292;DHT22;23311;48.776;9.162;2023-06-14T06:59:01;27.40;55.90
292;DHT22;23311;48.776;9.162;2023-06-14T07:01:29;27.90;54.80
292;DHT22;23311;48.776;9.162;2023-06-14T07:04:02;28.50;54.30
292;DHT22;23311;48.776;9.162;2023-06-14T07:06:30;28.50;54.50
292;DHT22;23311;48.776;9.162;2023-06-14T07:08:58;27.60;55.60
292;DHT22;23311;48.776;9.162;2023-06-14T07:11:28;28.20;55.00
292;DHT22;23311;48.776;9.162;2023-06-14T07:13:56;28.30;54.40
292;DHT22;23311;48.776;9.162;2023-06-14T07:16:24;28.10;54.00
292;DHT22;23311;48.776;9.162;2023-06-14T07:18:52;27.60;54.90
292;DHT22;23311;48.776;9.162;2023-06-14T07:21:22;27.10;55.70
292;DHT22;23311;48.776;9.162;2023-06-14T07:23:52;27.30;55.20
292;DHT22;23311;48.776;9.162;2023-06-14T07:26:21;27.70;55.00
292;DHT22;23311;48.776;9.162;2023-06-14T07:28:49;27.70;55.20
292;DHT22;23311;48.776;9.162;2023-06-14T07:31:17;27.60;55.30
292;DHT22;23311;48.776;9.162;2023-06-14T07:33:46;28.90;53.90
292;DHT22;23311;48.776;9.162;2023-06-14T07:36:14;29.30;52.50
292;DHT22;23311;48.776;9.162;2023-06-14T07:38:43;29.80;51.70
292;DHT22;23311;48.776;9.162;2023-06-14T07:41:12;29.40;51.80
292;DHT22;23311;48.776;9.162;2023-06-14T07:43:40;29.40;52.00
292;DHT22;23311;48.776;9.162;2023-06-14T07:46:08;28.90;52.00
292;DHT22;23311;48.776;9.162;2023-06-14T07:48:37;28.70;52.90
292;DHT22;23311;48.776;9.162;2023-06-14T07:51:05;29.30;51.80
292;DHT22;23311;48.776;9.162;2023-06-14T07:53:33;29.30;52.00
292;DHT22;23311;48.776;9.162;2023-06-14T07:56:03;29.20;52.60
292;DHT22;23311;48.776;9.162;2023-06-14T07:58:31;29.20;52.60
292;DHT22;23311;48.776;9.162;2023-06-14T08:00:59;28.40;53.70
292;DHT22;23311;48.776;9.162;2023-06-14T08:03:30;27.30;55.60
292;DHT22;23311;48.776;9.162;2023-06-14T08:05:58;27.10;56.10
292;DHT22;23311;48.776;9.162;2023-06-14T08:08:27;28.90;53.80
292;DHT22;23311;48.776;9.162;2023-06-14T08:10:55;29.60;52.20
292;DHT22;23311;48.776;9.162;2023-06-14T08:13:25;29.80;52.00
292;DHT22;23311;48.776;9.162;2023-06-14T08:15:53;30.50;51.30
292;DHT22;23311;48.776;9.162;2023-06-14T08:18:22;30.70;51.00
292;DHT22;23311;48.776;9.162;2023-06-14T08:20:50;31.40;50.30
292;DHT22;23311;48.776;9.162;2023-06-14T08:23:19;30.30;51.40
292;DHT22;23311;48.776;9.162;2023-06-14T08:25:47;30.80;51.40
292;DHT22;23311;48.776;9.162;2023-06-14T08:28:18;30.90;51.20
292;DHT22;23311;48.776;9.162;2023-06-14T08:30:47;29.80;52.50
292;DHT22;23311;48.776;9.162;2023-06-14T08:33:16;30.10;52.70
292;DHT22;23311;48.776;9.162;2023-06-14T08:35:44;30.50;52.00
292;DHT22;23311;48.776;9.162;2023-06-14T08:38:12;30.50;52.20
292;DHT22;23311;48.776;9.162;2023-06-14T08:40:41;28.30;54.60
292;DHT22;23311;48.776;9.162;2023-06-14T08:43:09;29.20;54.70
292;DHT22;23311;48.776;9.162;2023-06-14T08:45:38;29.70;53.50
292;DHT22;23311;48.776;9.162;2023-06-14T08:48:08;28.80;54.50
292;DHT22;23311;48.776;9.162;2023-06-14T08:50:40;29.90;53.70
292;DHT22;23311;48.776;9.162;2023-06-14T08:53:11;29.60;53.50
292;DHT22;23311;48.776;9.162;2023-06-14T08:55:46;29.50;53.90
292;DHT22;23311;48.776;9.162;2023-06-14T08:58:15;30.10;53.10
292;DHT22;23311;48.776;9.162;2023-06-14T09:00:44;30.60;51.90
292;DHT22;23311;48.776;9.162;2023-06-14T09:03:14;30.50;52.20
292;DHT22;23311;48.776;9.162;2023-06-14T09:05:44;29.80;53.50
292;DHT22;23311;48.776;9.162;2023-06-14T09:08:12;29.90;53.10
292;DHT22;23311;48.776;9.162;2023-06-14T09:10:45;29.90;53.50
292;DHT22;23311;48.776;9.162;2023-06-14T09:13:14;29.90;52.70
292;DHT22;23311;48.776;9.162;2023-06-14T09:15:42;30.70;51.90
292;DHT22;23311;48.776;9.162;2023-06-14T09:18:13;31.40;51.50
292;DHT22;23311;48.776;9.162;2023-06-14T09:20:42;31.90;50.90
292;DHT22;23311;48.776;9.162;2023-06-14T09:23:10;31.90;50.60
292;DHT22;23311;48.776;9.162;2023-06-14T09:25:42;31.80;50.80
292;DHT22;23311;48.776;9.162;2023-06-14T09:28:11;31.30;51.60
292;DHT22;23311;48.776;9.162;2023-06-14T09:30:39;31.10;51.50
292;DHT22;23311;48.776;9.162;2023-06-14T09:33:07;30.70;51.20
292;DHT22;23311;48.776;9.162;2023-06-14T09:35:37;30.50;51.40
292;DHT22;23311;48.776;9.162;2023-06-14T09:38:05;31.00;51.80
292;DHT22;23311;48.776;9.162;2023-06-14T09:40:35;29.70;53.80
292;DHT22;23311;48.776;9.162;2023-06-14T09:43:06;30.10;53.50
292;DHT22;23311;48.776;9.162;2023-06-14T09:45:38;31.30;52.00
292;DHT22;23311;48.776;9.162;2023-06-14T09:48:07;32.60;50.40
292;DHT22;23311;48.776;9.162;2023-06-14T09:50:37;32.50;49.80
292;DHT22;23311;48.776;9.162;2023-06-14T09:53:14;31.30;50.40
292;DHT22;23311;48.776;9.162;2023-06-14T09:55:46;29.40;53.30
292;DHT22;23311;48.776;9.162;2023-06-14T09:58:16;30.20;52.50
292;DHT22;23311;48.776;9.162;2023-06-14T10:00:46;31.40;50.40
292;DHT22;23311;48.776;9.162;2023-06-14T10:03:21;31.90;49.10
292;DHT22;23311;48.776;9.162;2023-06-14T10:05:51;32.40;48.30
292;DHT22;23311;48.776;9.162;2023-06-14T10:08:22;33.30;47.70
292;DHT22;23311;48.776;9.162;2023-06-14T10:10:53;32.70;48.60
292;DHT22;23311;48.776;9.162;2023-06-14T10:13:23;33.10;48.50
292;DHT22;23311;48.776;9.162;2023-06-14T10:15:57;32.60;48.70
292;DHT22;23311;48.776;9.162;2023-06-14T10:18:33;33.10;47.50
292;DHT22;23311;48.776;9.162;2023-06-14T10:21:16;34.20;45.90
292;DHT22;23311;48.776;9.162;2023-06-14T10:23:47;33.40;45.00
292;DHT22;23311;48.776;9.162;2023-06-14T10:26:20;32.40;46.40
292;DHT22;23311;48.776;9.162;2023-06-14T10:28:59;30.40;49.30
292;DHT22;23311;48.776;9.162;2023-06-14T10:31:41;27.70;52.90
292;DHT22;23311;48.776;9.162;2023-06-14T10:34:10;26.60;54.70
292;DHT22;23311;48.776;9.162;2023-06-14T10:36:42;26.20;55.30
292;DHT22;23311;48.776;9.162;2023-06-14T10:39:16;27.20;55.10
292;DHT22;23311;48.776;9.162;2023-06-14T10:41:52;29.10;52.80
292;DHT22;23311;48.776;9.162;2023-06-14T10:44:34;29.70;52.00
292;DHT22;23311;48.776;9.162;2023-06-14T10:47:08;30.50;50.70
292;DHT22;23311;48.776;9.162;2023-06-14T10:49:39;30.90;49.90
292;DHT22;23311;48.776;9.162;2023-06-14T10:52:11;31.70;48.90
292;DHT22;23311;48.776;9.162;2023-06-14T10:55:09;32.20;48.10
292;DHT22;23311;48.776;9.162;2023-06-14T10:57:40;31.00;49.50
292;DHT22;23311;48.776;9.162;2023-06-14T11:00:13;30.70;49.80
292;DHT22;23311;48.776;9.162;2023-06-14T11:03:23;31.50;48.80
292;DHT22;23311;48.776;9.162;2023-06-14T11:05:57;32.90;46.30
292;DHT22;23311;48.776;9.162;2023-06-14T11:11:38;33.50;45.90
292;DHT22;23311;48.776;9.162;2023-06-14T11:14:10;33.10;46.10
292;DHT22;23311;48.776;9.162;2023-06-14T11:16:38;33.40;46.00
292;DHT22;23311;48.776;9.162;2023-06-14T11:19:06;32.30;47.40
292;DHT22;23311;48.776;9.162;2023-06-14T11:21:39;32.30;47.30
292;DHT22;23311;48.776;9.162;2023-06-14T11:24:11;31.10;47.90
292;DHT22;23311;48.776;9.162;2023-06-14T11:26:40;31.40;47.20
292;DHT22;23311;48.776;9.162;2023-06-14T11:29:08;31.00;47.20
292;DHT22;23311;48.776;9.162;2023-06-14T11:31:37;31.10;47.00
292;DHT22;23311;48.776;9.162;2023-06-14T11:34:05;30.20;47.70
292;DHT22;23311;48.776;9.162;2023-06-14T11:36:34;29.80;48.30
292;DHT22;23311;48.776;9.162;2023-06-14T11:39:04;29.20;49.10
292;DHT22;23311;48.776;9.162;2023-06-14T11:41:36;29.00;49.80
292;DHT22;23311;48.776;9.162;2023-06-14T11:44:05;29.10;49.40
292;DHT22;23311;48.776;9.162;2023-06-14T11:46:33;29.40;49.70
292;DHT22;23311;48.776;9.162;2023-06-14T11:49:02;30.80;47.60
292;DHT22;23311;48.776;9.162;2023-06-14T11:51:32;31.40;46.90
292;DHT22;23311;48.776;9.162;2023-06-14T11:54:01;32.40;46.30
292;DHT22;23311;48.776;9.162;2023-06-14T11:56:30;32.70;45.80
292;DHT22;23311;48.776;9.162;2023-06-14T11:59:02;32.10;46.10
292;DHT22;23311;48.776;9.162;2023-06-14T12:01:36;29.20;49.30
292;DHT22;23311;48.776;9.162;2023-06-14T12:04:06;28.00;50.80
292;DHT22;23311;48.776;9.162;2023-06-14T12:06:35;27.20;52.20
292;DHT22;23311;48.776;9.162;2023-06-14T12:09:07;26.80;53.10
292;DHT22;23311;48.776;9.162;2023-06-14T12:11:39;26.10;53.70
292;DHT22;23311;48.776;9.162;2023-06-14T12:14:09;26.10;53.10
292;DHT22;23311;48.776;9.162;2023-06-14T12:16:39;26.80;52.90
292;DHT22;23311;48.776;9.162;2023-06-14T12:19:13;26.90;52.90
292;DHT22;23311;48.776;9.162;2023-06-14T12:21:42;27.10;52.30
292;DHT22;23311;48.776;9.162;2023-06-14T12:24:12;27.20;52.00
292;DHT22;23311;48.776;9.162;2023-06-14T12:26:41;27.40;51.90
292;DHT22;23311;48.776;9.162;2023-06-14T12:29:11;28.20;50.80
292;DHT22;23311;48.776;9.162;2023-06-14T12:31:40;29.20;49.80
292;DHT22;23311;48.776;9.162;2023-06-14T12:34:09;29.80;49.60
292;DHT22;23311;48.776;9.162;2023-06-14T12:36:38;29.80;49.40
292;DHT22;23311;48.776;9.162;2023-06-14T12:39:11;28.50;50.50
292;DHT22;23311;48.776;9.162;2023-06-14T12:41:39;28.40;51.60
292;DHT22;23311;48.776;9.162;2023-06-14T12:44:08;28.60;50.90
292;DHT22;23311;48.776;9.162;2023-06-14T12:46:37;29.10;50.50
292;DHT22;23311;48.776;9.162;2023-06-14T12:49:08;28.90;50.20
292;DHT22;23311;48.776;9.162;2023-06-14T12:51:36;29.50;49.80
292;DHT22;23311;48.776;9.162;2023-06-14T12:54:05;28.90;50.30
292;DHT22;23311;48.776;9.162;2023-06-14T12:56:34;29.40;49.90
292;DHT22;23311;48.776;9.162;2023-06-14T12:59:03;29.60;50.00
292;DHT22;23311;48.776;9.162;2023-06-14T13:01:33;29.60;49.70
292;DHT22;23311;48.776;9.162;2023-06-14T13:04:02;29.40;49.70
292;DHT22;23311;48.776;9.162;2023-06-14T13:06:31;29.30;50.00
292;DHT22;23311;48.776;9.162;2023-06-14T13:08:59;29.90;49.60
292;DHT22;23311;48.776;9.162;2023-06-14T13:11:28;30.80;48.90
292;DHT22;23311;48.776;9.162;2023-06-14T13:13:56;31.30;46.80
292;DHT22;23311;48.776;9.162;2023-06-14T13:16:26;31.30;46.90
292;DHT22;23311;48.776;9.162;2023-06-14T13:18:54;30.40;47.40
292;DHT22;23311;48.776;9.162;2023-06-14T13:21:24;30.30;47.90
292;DHT22;23311;48.776;9.162;2023-06-14T13:23:52;30.30;47.90
292;DHT22;23311;48.776;9.162;2023-06-14T13:26:20;31.30;47.00
292;DHT22;23311;48.776;9.162;2023-06-14T13:28:48;32.00;46.50
292;DHT22;23311;48.776;9.162;2023-06-14T13:31:18;32.00;46.40
292;DHT22;23311;48.776;9.162;2023-06-14T13:33:48;32.30;45.90
292;DHT22;23311;48.776;9.162;2023-06-14T13:36:19;32.20;46.40
292;DHT22;23311;48.776;9.162;2023-06-14T13:38:49;32.00;46.60
292;DHT22;23311;48.776;9.162;2023-06-14T13:41:18;30.90;47.80
292;DHT22;23311;48.776;9.162;2023-06-14T13:43:46;30.40;48.30
292;DHT22;23311;48.776;9.162;2023-06-14T13:46:15;30.60;48.70
292;DHT22;23311;48.776;9.162;2023-06-14T13:48:43;31.10;47.80
292;DHT22;23311;48.776;9.162;2023-06-14T13:51:13;30.80;47.80
292;DHT22;23311;48.776;9.162;2023-06-14T13:56:29;32.00;47.00
292;DHT22;23311;48.776;9.162;2023-06-14T13:58:58;32.00;46.80
292;DHT22;23311;48.776;9.162;2023-06-14T14:01:27;31.40;47.00
292;DHT22;23311;48.776;9.162;2023-06-14T14:03:56;31.80;47.10
292;DHT22;23311;48.776;9.162;2023-06-14T14:06:25;32.00;46.80
292;DHT22;23311;48.776;9.162;2023-06-14T14:08:53;31.70;46.70
292;DHT22;23311;48.776;9.162;2023-06-14T14:11:21;30.60;48.10
292;DHT22;23311;48.776;9.162;2023-06-14T14:13:51;31.70;47.30
292;DHT22;23311;48.776;9.162;2023-06-14T14:16:19;32.20;46.40
292;DHT22;23311;48.776;9.162;2023-06-14T14:18:47;32.50;45.90
292;DHT22;23311;48.776;9.162;2023-06-14T14:21:15;31.50;46.80
292;DHT22;23311;48.776;9.162;2023-06-14T14:23:43;30.80;47.60
292;DHT22;23311;48.776;9.162;2023-06-14T14:26:12;29.90;48.60
292;DHT22;23311;48.776;9.162;2023-06-14T14:28:40;29.20;49.60
292;DHT22;23311;48.776;9.162;2023-06-14T14:31:09;29.10;49.70
292;DHT22;23311;48.776;9.162;2023-06-14T14:33:55;28.40;51.20
292;DHT22;23311;48.776;9.162;2023-06-14T14:36:23;27.80;52.20
292;DHT22;23311;48.776;9.162;2023-06-14T14:38:52;27.30;53.20
292;DHT22;23311;48.776;9.162;2023-06-14T14:41:20;27.30;53.50
292;DHT22;23311;48.776;9.162;2023-06-14T14:43:48;27.20;53.80
292;DHT22;23311;48.776;9.162;2023-06-14T14:46:17;26.90;54.00
292;DHT22;23311;48.776;9.162;2023-06-14T14:48:45;27.60;53.60
292;DHT22;23311;48.776;9.162;2023-06-14T14:51:14;28.90;52.00
292;DHT22;23311;48.776;9.162;2023-06-14T14:53:42;29.80;50.50
292;DHT22;23311;48.776;9.162;2023-06-14T14:56:10;30.40;49.80
292;DHT22;23311;48.776;9.162;2023-06-14T14:58:38;30.50;49.50
292;DHT22;23311;48.776;9.162;2023-06-14T15:01:06;30.90;49.30
292;DHT22;23311;48.776;9.162;2023-06-14T15:03:36;31.00;48.70
292;DHT22;23311;48.776;9.162;2023-06-14T15:06:23;30.00;49.00
292;DHT22;23311;48.776;9.162;2023-06-14T15:08:51;30.30;48.80
292;DHT22;23311;48.776;9.162;2023-06-14T15:11:19;30.30;47.90
292;DHT22;23311;48.776;9.162;2023-06-14T15:13:47;30.40;48.10
292;DHT22;23311;48.776;9.162;2023-06-14T15:16:16;30.70;47.90
292;DHT22;23311;48.776;9.162;2023-06-14T15:18:45;30.90;47.90
292;DHT22;23311;48.776;9.162;2023-06-14T15:21:13;31.40;47.80
292;DHT22;23311;48.776;9.162;2023-06-14T15:23:41;31.00;48.70
292;DHT22;23311;48.776;9.162;2023-06-14T15:26:09;31.30;48.60
292;DHT22;23311;48.776;9.162;2023-06-14T15:28:37;31.50;48.30
292;DHT22;23311;48.776;9.162;2023-06-14T15:31:06;30.90;48.80
292;DHT22;23311;48.776;9.162;2023-06-14T15:33:34;30.80;48.90
292;DHT22;23311;48.776;9.162;2023-06-14T15:36:05;30.10;49.50
292;DHT22;23311;48.776;9.162;2023-06-14T15:38:36;30.40;49.40
292;DHT22;23311;48.776;9.162;2023-06-14T15:41:04;30.50;48.90
292;DHT22;23311;48.776;9.162;2023-06-14T15:43:33;30.70;48.60
292;DHT22;23311;48.776;9.162;2023-06-14T15:46:01;30.90;48.20
292;DHT22;23311;48.776;9.162;2023-06-14T15:48:29;30.30;48.60
292;DHT22;23311;48.776;9.162;2023-06-14T15:50:58;28.90;51.00
292;DHT22;23311;48.776;9.162;2023-06-14T15:53:27;28.10;52.40
292;DHT22;23311;48.776;9.162;2023-06-14T15:55:55;27.40;53.30
292;DHT22;23311;48.776;9.162;2023-06-14T15:58:23;26.80;54.40
292;DHT22;23311;48.776;9.162;2023-06-14T16:00:52;26.60;54.40
292;DHT22;23311;48.776;9.162;2023-06-14T16:03:20;26.40;54.70
292;DHT22;23311;48.776;9.162;2023-06-14T16:05:48;26.20;55.00
292;DHT22;23311;48.776;9.162;2023-06-14T16:08:16;26.00;55.40
292;DHT22;23311;48.776;9.162;2023-06-14T16:11:06;26.00;55.40
292;DHT22;23311;48.776;9.162;2023-06-14T16:13:34;25.50;55.90
292;DHT22;23311;48.776;9.162;2023-06-14T16:16:02;25.50;56.10
292;DHT22;23311;48.776;9.162;2023-06-14T16:18:31;25.50;55.90
292;DHT22;23311;48.776;9.162;2023-06-14T16:20:59;25.40;55.70
292;DHT22;23311;48.776;9.162;2023-06-14T16:23:33;25.20;55.70